Latest Coastal Weather Observations for Rowley Shoals

IDW60701

Issued at 1:33 am WST Thursday 3 September 2026 (issued every 10 minutes, with the page automatically refreshed every 10 minutes)

About coastal observations | Map of coastal stations | Coastal observations for WA | Marine services | Other Formats
Station Details ID: 200713 Name: ROWLEY SHOALS Lat: -17.52 Lon: 118.95 Height: 0.0 m
Data from the previous 72 hours. | See also: Recent months at Rowley Shoals
Date/Time
WST
Wind Sea
Height
m
Swell Vis
km
Cloud Weather Temp
°C
Press
MSL
hPa
Rain since
9am
mm
Dir  Spd
kts
Gust
kts
Height
m
Period
s
Dir
03/01:30am WNW 9 11 - - - - - - - 25.1 1014.9 -
03/01:00am WNW 9 11 - - - - - - - 25.2 1015.0 -
03/12:30am W 11 12 - - - - - - - 25.2 1015.1 -
03/12:00am W 11 13 - - - - - - - 25.2 1015.4 -
 
Date/Time
WST
Wind Sea
Height
m
Swell Vis
km
Cloud Weather Temp
°C
Press
MSL
hPa
Rain since
9am
mm
Dir  Spd
kts
Gust
kts
Height
m
Period
s
Dir
02/11:30pm W 11 12 - - - - - - - 25.4 1015.6 -
02/11:00pm WNW 12 13 - - - - - - - 25.3 1015.5 -
02/10:30pm WNW 10 12 - - - - - - - 25.4 1015.8 -
02/10:00pm WNW 10 11 - - - - - - - 25.4 1015.9 -
02/09:30pm WNW 8 9 - - - - - - - 25.5 1016.1 -
02/09:00pm WNW 9 10 - - - - - - - 25.5 1016.1 -
02/08:30pm WNW 8 9 - - - - - - - 25.7 1015.9 -
02/08:00pm WNW 7 8 - - - - - - - 25.6 1015.9 -
02/07:30pm W 8 9 - - - - - - - 25.6 1015.6 -
02/07:00pm W 8 9 - - - - - - - 25.8 1015.4 -
02/06:30pm W 7 8 - - - - - - - 26.0 1015.2 -
02/06:00pm W 7 8 - - - - - - - 25.9 1015.0 -
02/05:30pm WSW 6 8 - - - - - - - 26.2 1014.7 -
02/05:00pm WSW 6 7 - - - - - - - 26.4 1014.5 -
02/04:30pm WSW 5 6 - - - - - - - 26.3 1014.4 -
02/04:00pm WSW 5 6 - - - - - - - 26.3 1014.3 -
02/03:30pm WSW 4 5 - - - - - - - 26.5 1014.3 -
02/03:00pm WSW 4 6 - - - - - - - 26.3 1014.4 -
02/02:30pm W 4 5 - - - - - - - 26.3 1014.6 -
02/02:00pm SW 4 5 - - - - - - - 26.3 1014.8 -
02/01:30pm SSW 4 5 - - - - - - - 26.3 1015.1 -
02/01:00pm SSW 5 7 - - - - - - - 26.3 1015.5 -
02/12:30pm SSW 4 5 - - - - - - - 26.3 1015.9 -
02/12:00pm SSW 7 8 - - - - - - - 26.4 1016.2 -
02/11:30am SSW 8 9 - - - - - - - 26.1 1016.6 -
02/11:00am SSW 9 9 - - - - - - - 26.2 1017.1 -
02/10:30am SSW 10 12 - - - - - - - 26.2 1017.1 -
02/10:00am SSW 11 12 - - - - - - - 26.1 1017.2 -
02/09:30am SSW 12 13 - - - - - - - 26.0 1017.3 -
02/09:00am SSW 12 14 - - - - - - - 25.8 1017.3 -
02/08:30am SSW 13 14 - - - - - - - 25.8 1017.0 -
02/08:00am SSW 12 14 - - - - - - - 25.8 1017.0 -
02/07:30am SSW 12 14 - - - - - - - 25.7 1016.5 -
02/07:00am SSW 13 15 - - - - - - - 25.6 1016.4 -
02/06:30am SSW 13 16 - - - - - - - 25.6 1016.1 -
02/06:00am SSW 14 15 - - - - - - - 25.7 1015.9 -
02/05:30am SSW 15 18 - - - - - - - 25.8 1015.6 -
02/05:00am SW 15 18 - - - - - - - 25.8 1015.2 -
02/04:30am SW 15 17 - - - - - - - 25.8 1015.1 -
02/04:00am SW 15 17 - - - - - - - 25.8 1015.0 -
02/03:30am SW 15 16 - - - - - - - 25.7 1015.1 -
02/03:00am SW 14 16 - - - - - - - 25.5 1015.1 -
02/02:30am SW 15 16 - - - - - - - 25.6 1014.9 -
02/02:00am WSW 15 17 - - - - - - - 25.7 1015.1 -
02/01:30am WSW 15 16 - - - - - - - 25.6 1015.3 -
02/01:00am WSW 14 16 - - - - - - - 25.6 1015.4 -
02/12:30am WSW 14 16 - - - - - - - 25.7 1015.6 -
02/12:00am WSW 13 15 - - - - - - - 25.7 1015.8 -
 
Date/Time
WST
Wind Sea
Height
m
Swell Vis
km
Cloud Weather Temp
°C
Press
MSL
hPa
Rain since
9am
mm
Dir  Spd
kts
Gust
kts
Height
m
Period
s
Dir
01/11:30pm WSW 12 14 - - - - - - - 25.7 1016.0 -
01/11:00pm WSW 13 14 - - - - - - - 25.8 1016.1 -
01/10:30pm WSW 13 14 - - - - - - - 25.7 1016.2 -
01/10:00pm WSW 13 14 - - - - - - - 25.8 1016.3 -
01/09:30pm WSW 11 13 - - - - - - - 25.7 1016.5 -
01/09:00pm WSW 10 12 - - - - - - - 25.6 1016.6 -
01/08:30pm WSW 10 12 - - - - - - - 25.7 1016.6 -
01/08:00pm WSW 10 11 - - - - - - - 25.6 1016.5 -
01/07:30pm WSW 10 11 - - - - - - - 25.9 1016.2 -
01/07:00pm WSW 9 11 - - - - - - - 25.8 1016.0 -
01/06:30pm WSW 8 9 - - - - - - - 26.0 1015.8 -
01/06:00pm WSW 8 8 - - - - - - - 26.3 1015.6 -
01/05:30pm WSW 7 8 - - - - - - - 26.1 1015.5 -
01/05:00pm WSW 7 7 - - - - - - - 26.5 1015.3 -
01/04:30pm SW 6 7 - - - - - - - 26.5 1015.2 -
01/04:00pm SW 5 6 - - - - - - - 26.7 1015.3 -
01/03:30pm SW 5 5 - - - - - - - 26.5 1015.3 -
01/03:00pm S 5 7 - - - - - - - 26.7 1015.3 -
01/02:30pm SSW 7 8 - - - - - - - 26.6 1015.5 -
01/02:00pm S 7 8 - - - - - - - 26.6 1015.8 -
01/01:30pm S 7 9 - - - - - - - 26.6 1016.1 -
01/01:00pm S 7 10 - - - - - - - 26.6 1016.4 -
01/12:30pm S 7 11 - - - - - - - 26.4 1016.6 -
01/12:00pm S 8 10 - - - - - - - 26.3 1016.9 -
01/11:30am S 10 13 - - - - - - - 26.1 1017.2 -
01/11:00am SSW 11 13 - - - - - - - 26.1 1017.6 -
01/10:30am SSW 11 14 - - - - - - - 26.3 1017.9 -
01/10:00am SSW 12 14 - - - - - - - 26.1 1018.1 -
01/09:30am SSW 13 15 - - - - - - - 26.0 1018.1 -
01/09:00am SSW 13 14 - - - - - - - 25.8 1018.1 -
01/08:30am SSW 14 16 - - - - - - - 25.8 1017.8 -
01/08:00am SSW 13 15 - - - - - - - 25.9 1017.8 -
01/07:30am SSW 11 13 - - - - - - - 25.8 1017.7 -
01/07:00am SSW 11 13 - - - - - - - 25.9 1017.4 -
01/06:30am SW 11 13 - - - - - - - 25.8 1017.0 -
01/06:00am SW 11 13 - - - - - - - 26.0 1016.8 -
01/05:30am SW 12 13 - - - - - - - 26.1 1016.6 -
01/05:00am SW 12 14 - - - - - - - 26.0 1016.4 -
01/04:30am SW 12 14 - - - - - - - 26.1 1016.4 -
01/04:00am SW 12 14 - - - - - - - 26.1 1016.3 -
01/03:30am SW 11 13 - - - - - - - 26.1 1016.4 -
01/03:00am SW 11 13 - - - - - - - 25.9 1016.3 -
01/02:30am SW 11 12 - - - - - - - 26.1 1016.5 -
01/02:00am SW 12 13 - - - - - - - 26.1 1016.5 -
01/01:30am SW 12 14 - - - - - - - 26.1 1016.6 -
01/01:00am SW 13 15 - - - - - - - 25.8 1016.7 -
01/12:30am SW 13 15 - - - - - - - 25.6 1017.1 -
01/12:00am SW 12 14 - - - - - - - 25.8 1017.5 -
 
Date/Time
WST
Wind Sea
Height
m
Swell Vis
km
Cloud Weather Temp
°C
Press
MSL
hPa
Rain since
9am
mm
Dir  Spd
kts
Gust
kts
Height
m
Period
s
Dir
31/11:30pm SW 12 13 - - - - - - - 25.7 1017.9 -
31/11:00pm SW 11 13 - - - - - - - 25.8 1018.1 -
31/10:30pm SW 10 11 - - - - - - - 25.7 1018.4 -
31/10:00pm SSW 10 11 - - - - - - - 25.7 1018.4 -
31/09:30pm SW 9 10 - - - - - - - 25.6 1018.5 -
31/09:00pm SSW 8 9 - - - - - - - 25.8 1018.4 -
31/08:30pm SSW 8 9 - - - - - - - 25.8 1018.4 -
31/08:00pm SSW 8 9 - - - - - - - 25.8 1018.3 -
31/07:30pm SSW 7 9 - - - - - - - 25.7 1018.0 -
31/07:00pm S 5 7 - - - - - - - 25.7 1017.7 -
31/06:30pm S 4 6 - - - - - - - 25.6 1017.6 -
31/06:00pm SSE 5 6 - - - - - - - 25.6 1017.2 -
31/05:30pm SSE 4 5 - - - - - - - 25.7 1017.0 -
31/05:00pm SE 5 6 - - - - - - - 25.9 1016.9 -
31/04:30pm ESE 5 6 - - - - - - - 26.0 1016.9 -
31/04:00pm SE 6 7 - - - - - - - 26.3 1017.0 -
31/03:30pm SE 7 8 - - - - - - - 26.0 1017.0 -
31/03:00pm SE 8 9 - - - - - - - 26.0 1017.1 -
31/02:30pm SE 7 9 - - - - - - - 25.8 1017.2 -
31/02:00pm SE 7 9 - - - - - - - 26.0 1017.3 -
31/01:30pm SSE 8 9 - - - - - - - 25.9 1017.4 -
31/01:00pm SSE 8 9 - - - - - - - 26.1 1017.4 -
31/12:30pm SE 8 9 - - - - - - - 26.1 1017.7 -
31/12:00pm SE 8 9 - - - - - - - 26.3 1017.9 -
31/11:30am SE 10 12 - - - - - - - 26.1 1018.3 -
31/11:00am SE 9 11 - - - - - - - 26.2 1018.3 -
31/10:30am SE 8 8 - - - - - - - 26.2 1018.4 -
31/10:00am SSE 7 8 - - - - - - - 26.1 1018.5 -
31/09:30am S 4 5 - - - - - - - 27.1 1018.4 -
31/09:00am S 5 7 - - - - - - - 26.4 1018.3 -
31/08:30am SSW 6 7 - - - - - - - 26.3 1018.2 -
31/08:00am SSW 6 9 - - - - - - - 25.8 1018.0 -
31/07:30am SSW 7 8 - - - - - - - 25.7 1017.7 -
31/07:00am WSW 5 5 - - - - - - - 25.5 1017.3 -
31/06:30am WSW 7 7 - - - - - - - 25.5 1017.0 -
31/06:00am WSW 5 6 - - - - - - - 25.5 1016.9 -
31/05:30am WSW 6 8 - - - - - - - 25.6 1016.6 -
31/05:00am WSW 6 8 - - - - - - - 25.8 1016.3 -
31/04:30am WSW 5 6 - - - - - - - 25.4 1016.2 -
31/04:00am WSW 6 7 - - - - - - - 25.5 1016.1 -
31/03:30am WSW 6 8 - - - - - - - 25.6 1016.2 -
31/03:00am SW 8 8 - - - - - - - 25.5 1016.4 -
31/02:30am SW 8 9 - - - - - - - 25.7 1016.6 -
31/02:00am SW 7 8 - - - - - - - 25.6 1016.7 -

Other formats

Comma delimited format used in spreadsheet applications
http://www.bom.gov.au/fwo/IDW60701/IDW60701.94207.axf

JavaScript Object Notation format (JSON) in row-major order
http://www.bom.gov.au/fwo/IDW60701/IDW60701.94207.json

Data quality

Most of these data are generated automatically and are frequently updated. Quality checks on data are not normally performed. It is possible for incorrect values to appear. Refer to information at About Latest Weather Observations and please check the disclaimer before using these data.